createdAt,value
2018-01-05T00:00:09.262Z,98695.00
2018-01-05T00:02:36.086Z,98693.28
2018-01-05T00:05:03.609Z,98703.88
2018-01-05T00:07:30.387Z,98705.08
2018-01-05T00:09:57.882Z,98703.19
2018-01-05T00:12:24.778Z,98698.20
2018-01-05T00:14:51.564Z,98690.47
2018-01-05T00:17:18.324Z,98708.55
2018-01-05T00:19:45.122Z,98689.03
2018-01-05T00:22:12.803Z,98700.95
2018-01-05T00:24:40.414Z,98704.35
2018-01-05T00:27:07.244Z,98721.77
2018-01-05T00:29:34.043Z,98723.66
2018-01-05T00:32:00.932Z,98715.47
2018-01-05T00:34:27.728Z,98726.66
2018-01-05T00:36:55.271Z,98727.59
2018-01-05T00:39:22.121Z,98728.87
2018-01-05T00:41:48.934Z,98727.69
2018-01-05T00:44:15.783Z,98724.68
2018-01-05T00:46:43.306Z,98737.59
2018-01-05T00:49:11.521Z,98739.91
2018-01-05T00:51:38.489Z,98753.75
2018-01-05T00:54:06.081Z,98742.67
2018-01-05T00:56:32.931Z,98738.29
2018-01-05T00:58:59.740Z,98737.70
2018-01-05T01:01:26.922Z,98736.20
2018-01-05T01:03:53.881Z,98734.72
2018-01-05T01:06:20.710Z,98745.41
2018-01-05T01:08:47.488Z,98753.45
2018-01-05T01:11:14.266Z,98750.13
2018-01-05T01:13:41.094Z,98758.56
2018-01-05T01:16:08.718Z,98770.71
2018-01-05T01:18:35.647Z,98769.64
2018-01-05T01:21:02.428Z,98771.84
2018-01-05T01:23:29.237Z,98762.05
2018-01-05T01:25:56.118Z,98764.49
2018-01-05T01:28:23.624Z,98751.98
2018-01-05T01:30:50.628Z,98743.51
2018-01-05T01:33:17.461Z,98762.25
2018-01-05T01:35:44.323Z,98744.14
2018-01-05T01:38:11.133Z,98735.45
2018-01-05T01:40:38.712Z,98746.08
2018-01-05T01:43:06.209Z,98731.06
2018-01-05T01:45:33.217Z,98721.77
2018-01-05T01:48:00.451Z,98724.02
2018-01-05T01:50:27.342Z,98725.23
2018-01-05T01:52:54.175Z,98736.79
2018-01-05T01:55:21.000Z,98725.92
2018-01-05T01:57:47.862Z,98724.91
2018-01-05T02:00:15.449Z,98722.78
2018-01-05T02:02:42.279Z,98720.45
2018-01-05T02:05:09.090Z,98721.30
2018-01-05T02:07:35.977Z,98713.80
2018-01-05T02:10:02.823Z,98713.48
2018-01-05T02:12:29.672Z,98713.29
2018-01-05T02:14:56.481Z,98711.98
2018-01-05T02:17:23.868Z,98704.16
2018-01-05T02:19:50.833Z,98713.85
2018-01-05T02:22:17.636Z,98695.48
2018-01-05T02:24:44.434Z,98689.23
2018-01-05T02:27:11.256Z,98699.09
2018-01-05T02:29:38.142Z,98689.87
2018-01-05T02:32:05.332Z,98686.91
2018-01-05T02:34:32.509Z,98690.05
2018-01-05T02:36:59.346Z,98685.51
2018-01-05T02:39:26.100Z,98683.60
2018-01-05T02:41:52.896Z,98673.45
2018-01-05T02:44:19.867Z,98670.69
2018-01-05T02:46:46.694Z,98676.68
2018-01-05T02:49:13.510Z,98655.55
2018-01-05T02:51:40.345Z,98659.45
2018-01-05T02:54:07.279Z,98672.73
2018-01-05T02:56:34.123Z,98669.59
2018-01-05T02:59:00.890Z,98672.30
2018-01-05T03:01:27.695Z,98668.58
2018-01-05T03:03:55.358Z,98669.13
2018-01-05T03:06:22.152Z,98667.64
2018-01-05T03:08:49.005Z,98654.78
2018-01-05T03:11:16.556Z,98649.22
2018-01-05T03:13:43.357Z,98660.33
2018-01-05T03:16:10.179Z,98666.66
2018-01-05T03:18:36.984Z,98657.28
2018-01-05T03:21:05.138Z,98664.41
2018-01-05T03:23:32.695Z,98654.34
2018-01-05T03:25:59.532Z,98640.71
2018-01-05T03:28:26.330Z,98660.13
2018-01-05T03:30:53.883Z,98665.62
2018-01-05T03:33:20.658Z,98644.05
2018-01-05T03:35:47.520Z,98639.48
2018-01-05T03:38:14.307Z,98630.34
2018-01-05T03:40:41.820Z,98629.92
2018-01-05T03:43:08.637Z,98635.48
2018-01-05T03:45:36.159Z,98638.88
2018-01-05T03:48:02.970Z,98633.91
2018-01-05T03:50:31.608Z,98628.90
2018-01-05T03:52:58.478Z,98642.89
2018-01-05T03:55:26.234Z,98644.26
2018-01-05T03:57:54.802Z,98658.25
2018-01-05T04:00:21.714Z,98656.05
2018-01-05T04:02:48.639Z,98653.23
2018-01-05T04:05:15.855Z,98638.80
2018-01-05T04:07:48.182Z,98636.27
2018-01-05T04:10:15.808Z,98623.82
2018-01-05T04:12:47.836Z,98625.36
2018-01-05T04:15:17.847Z,98634.56
2018-01-05T04:17:44.990Z,98623.61
2018-01-05T04:20:17.257Z,98620.87
2018-01-05T04:22:45.049Z,98612.98
2018-01-05T04:25:12.179Z,98604.30
2018-01-05T04:27:44.551Z,98609.33
2018-01-05T04:30:11.706Z,98606.06
2018-01-05T04:32:44.029Z,98601.66
2018-01-05T04:35:11.342Z,98602.55
2018-01-05T04:37:44.048Z,98599.49
2018-01-05T04:40:11.076Z,98607.58
2018-01-05T04:42:38.719Z,98595.67
2018-01-05T04:45:05.567Z,98591.72
2018-01-05T04:47:38.025Z,98587.12
2018-01-05T04:50:05.193Z,98601.64
2018-01-05T04:52:38.123Z,98588.56
2018-01-05T04:55:05.368Z,98584.08
2018-01-05T04:57:32.747Z,98580.25
2018-01-05T05:00:06.391Z,98581.36
2018-01-05T05:02:36.352Z,98572.16
2018-01-05T05:05:04.280Z,98580.30
2018-01-05T05:07:31.099Z,98578.09
2018-01-05T05:09:58.104Z,98589.77
2018-01-05T05:12:31.309Z,98590.23
2018-01-05T05:14:58.198Z,98591.00
2018-01-05T05:17:25.064Z,98592.88
2018-01-05T05:19:52.114Z,98576.97
2018-01-05T05:22:20.328Z,98593.27
2018-01-05T05:24:47.222Z,98581.31
2018-01-05T05:27:19.714Z,98564.65
2018-01-05T05:29:47.327Z,98564.86
2018-01-05T05:32:14.348Z,98574.78
2018-01-05T05:34:46.439Z,98588.17
2018-01-05T05:37:13.966Z,98575.02
2018-01-05T05:39:41.266Z,98581.49
2018-01-05T05:42:09.317Z,98578.16
2018-01-05T05:44:41.679Z,98576.33
2018-01-05T05:47:14.622Z,98579.98
2018-01-05T05:49:41.808Z,98581.13
2018-01-05T05:52:14.607Z,98589.84
2018-01-05T05:54:41.896Z,98597.73
2018-01-05T05:57:08.905Z,98617.04
2018-01-05T05:59:36.192Z,98603.89
2018-01-05T06:02:04.392Z,98599.56
2018-01-05T06:04:31.611Z,98606.14
2018-01-05T06:06:58.847Z,98605.67
2018-01-05T06:09:26.015Z,98608.43
2018-01-05T06:11:53.105Z,98616.50
2018-01-05T06:14:25.739Z,98611.24
2018-01-05T06:16:58.047Z,98631.96
2018-01-05T06:19:25.498Z,98626.48
2018-01-05T06:21:52.864Z,98632.55
2018-01-05T06:24:20.511Z,98639.78
2018-01-05T06:26:48.954Z,98643.60
2018-01-05T06:29:16.224Z,98642.71
2018-01-05T06:31:43.728Z,98646.86
2018-01-05T06:34:10.962Z,98647.76
2018-01-05T06:36:38.660Z,98653.20
2018-01-05T06:39:05.818Z,98655.48
2018-01-05T06:41:32.732Z,98656.08
2018-01-05T06:43:59.705Z,98654.27
2018-01-05T06:46:28.582Z,98650.69
2018-01-05T06:49:00.263Z,98646.14
2018-01-05T06:51:29.004Z,98656.12
2018-01-05T06:53:56.175Z,98662.71
2018-01-05T06:56:23.061Z,98656.08
2018-01-05T06:58:50.874Z,98659.61
2018-01-05T07:01:18.983Z,98669.42
2018-01-05T07:03:45.911Z,98674.44
2018-01-05T07:06:13.715Z,98683.48
2018-01-05T07:08:40.921Z,98673.53
2018-01-05T07:11:08.769Z,98670.73
2018-01-05T07:13:35.639Z,98680.55
2018-01-05T07:16:02.414Z,98684.48
2018-01-05T07:18:29.935Z,98678.94
2018-01-05T07:20:56.707Z,98673.71
2018-01-05T07:23:23.495Z,98677.66
2018-01-05T07:25:51.229Z,98679.22
2018-01-05T07:28:17.995Z,98680.59
2018-01-05T07:30:44.793Z,98689.08
2018-01-05T07:33:11.659Z,98686.75
2018-01-05T07:35:38.475Z,98692.67
2018-01-05T07:38:05.277Z,98692.42
2018-01-05T07:40:32.076Z,98709.23
2018-01-05T07:42:58.880Z,98710.92
2018-01-05T07:45:25.679Z,98711.38
2018-01-05T07:47:53.239Z,98719.87
2018-01-05T07:50:20.033Z,98708.07
2018-01-05T07:52:46.846Z,98721.53
2018-01-05T07:55:13.626Z,98733.44
2018-01-05T07:57:41.141Z,98733.20
2018-01-05T08:00:07.952Z,98733.86
2018-01-05T08:02:34.748Z,98739.02
2018-01-05T08:05:01.536Z,98742.22
2018-01-05T08:07:28.306Z,98754.40
2018-01-05T08:09:55.211Z,98761.66
2018-01-05T08:12:22.803Z,98769.47
2018-01-05T08:14:49.580Z,98769.47
2018-01-05T08:17:16.341Z,98770.14
2018-01-05T08:19:43.877Z,98776.90
2018-01-05T08:22:11.403Z,98785.08
2018-01-05T08:24:38.188Z,98778.66
2018-01-05T08:27:05.075Z,98767.58
2018-01-05T08:29:31.930Z,98777.71
2018-01-05T08:31:58.736Z,98780.22
2018-01-05T08:34:25.517Z,98792.01
2018-01-05T08:36:52.300Z,98803.06
2018-01-05T08:39:19.283Z,98810.04
2018-01-05T08:41:46.097Z,98821.30
2018-01-05T08:44:12.890Z,98814.78
2018-01-05T08:46:39.715Z,98811.12
2018-01-05T08:49:06.493Z,98801.70
2018-01-05T08:51:33.253Z,98802.17
2018-01-05T08:54:00.079Z,98818.28
2018-01-05T08:56:26.892Z,98818.20
2018-01-05T08:58:53.676Z,98815.30
2018-01-05T09:01:21.216Z,98821.14
2018-01-05T09:03:48.037Z,98816.72
2018-01-05T09:06:14.855Z,98812.31
2018-01-05T09:08:41.660Z,98812.17
2018-01-05T09:11:08.481Z,98822.80
2018-01-05T09:13:35.995Z,98825.59
2018-01-05T09:16:02.842Z,98842.84
2018-01-05T09:18:29.676Z,98849.91
2018-01-05T09:20:57.245Z,98849.61
2018-01-05T09:23:24.958Z,98848.39
2018-01-05T09:25:51.786Z,98849.85
2018-01-05T09:28:18.695Z,98845.92
2018-01-05T09:30:45.498Z,98851.38
2018-01-05T09:33:12.273Z,98855.40
2018-01-05T09:35:39.042Z,98848.66
2018-01-05T09:38:06.556Z,98864.54
2018-01-05T09:40:33.411Z,98868.62
2018-01-05T09:43:00.174Z,98854.81
2018-01-05T09:45:26.929Z,98856.70
2018-01-05T09:47:53.721Z,98857.61
2018-01-05T09:50:20.478Z,98858.23
2018-01-05T09:52:47.285Z,98855.78
2018-01-05T09:55:14.057Z,98857.45
2018-01-05T09:57:40.851Z,98871.63
2018-01-05T10:00:07.660Z,98862.51
2018-01-05T10:02:35.142Z,98864.30
2018-01-05T10:05:02.727Z,98883.31
2018-01-05T10:07:29.566Z,98872.50
2018-01-05T10:09:57.072Z,98871.16
2018-01-05T10:12:23.865Z,98865.02
2018-01-05T10:14:50.672Z,98867.68
2018-01-05T10:17:18.204Z,98866.06
2018-01-05T10:19:44.973Z,98870.16
2018-01-05T10:22:11.791Z,98873.25
2018-01-05T10:24:38.599Z,98882.97
2018-01-05T10:27:05.415Z,98884.51
2018-01-05T10:29:32.228Z,98889.64
2018-01-05T10:31:58.988Z,98888.48
2018-01-05T10:34:25.774Z,98887.33
2018-01-05T10:36:53.482Z,98897.11
2018-01-05T10:39:20.275Z,98886.53
2018-01-05T10:41:47.029Z,98882.02
2018-01-05T10:44:13.830Z,98877.78
2018-01-05T10:46:41.400Z,98884.51
2018-01-05T10:49:08.923Z,98885.44
2018-01-05T10:51:35.727Z,98878.67
2018-01-05T10:54:02.642Z,98880.27
2018-01-05T10:56:29.437Z,98883.09
2018-01-05T10:58:56.211Z,98876.34
2018-01-05T11:01:23.051Z,98878.78
2018-01-05T11:03:49.837Z,98879.20
2018-01-05T11:06:17.380Z,98889.19
2018-01-05T11:08:44.201Z,98891.94
2018-01-05T11:11:11.064Z,98894.23
2018-01-05T11:13:37.932Z,98903.16
2018-01-05T11:16:04.994Z,98898.70
2018-01-05T11:18:31.838Z,98894.20
2018-01-05T11:20:59.447Z,98890.73
2018-01-05T11:23:26.296Z,98879.77
2018-01-05T11:25:53.071Z,98887.81
2018-01-05T11:28:19.881Z,98890.16
2018-01-05T11:30:46.701Z,98884.86
2018-01-05T11:33:13.555Z,98901.39
2018-01-05T11:35:40.342Z,98889.95
2018-01-05T11:38:07.170Z,98895.02
2018-01-05T11:40:33.967Z,98889.58
2018-01-05T11:43:00.788Z,98893.61
2018-01-05T11:45:27.540Z,98887.03
2018-01-05T11:47:54.355Z,98878.88
2018-01-05T11:50:21.143Z,98887.80
2018-01-05T11:52:47.989Z,98887.09
2018-01-05T11:55:15.541Z,98883.38
2018-01-05T11:57:42.337Z,98879.78
2018-01-05T12:00:09.894Z,98877.52
2018-01-05T12:02:36.715Z,98873.45
2018-01-05T12:05:03.507Z,98882.55
2018-01-05T12:07:30.308Z,98883.53
2018-01-05T12:09:57.077Z,98887.20
2018-01-05T12:12:23.916Z,98892.51
2018-01-05T12:14:51.475Z,98882.21
2018-01-05T12:17:18.284Z,98888.80
2018-01-05T12:19:45.064Z,98890.30
2018-01-05T12:22:11.868Z,98892.77
2018-01-05T12:24:39.416Z,98876.99
2018-01-05T12:27:06.275Z,98877.34
2018-01-05T12:29:33.046Z,98880.36
2018-01-05T12:31:59.870Z,98867.01
2018-01-05T12:34:26.725Z,98880.78
2018-01-05T12:36:53.598Z,98871.98
2018-01-05T12:39:22.069Z,98865.61
2018-01-05T12:41:48.932Z,98850.39
2018-01-05T12:44:15.759Z,98853.95
2018-01-05T12:46:42.566Z,98853.75
2018-01-05T12:49:09.424Z,98858.00
2018-01-05T12:51:36.255Z,98869.77
2018-01-05T12:54:03.117Z,98864.72
2018-01-05T12:56:30.219Z,98859.23
2018-01-05T12:59:00.277Z,98867.83
2018-01-05T13:01:27.186Z,98864.67
2018-01-05T13:03:54.003Z,98865.63
2018-01-05T13:06:20.822Z,98866.89
2018-01-05T13:08:47.718Z,98868.38
2018-01-05T13:11:14.569Z,98865.87
2018-01-05T13:13:42.126Z,98872.11
2018-01-05T13:16:08.923Z,98879.09
2018-01-05T13:18:35.822Z,98879.52
2018-01-05T13:21:03.409Z,98885.52
2018-01-05T13:23:30.220Z,98881.69
2018-01-05T13:25:57.051Z,98877.98
2018-01-05T13:28:24.128Z,98883.18
2018-01-05T13:30:50.996Z,98884.75
2018-01-05T13:33:17.804Z,98889.34
2018-01-05T13:35:45.400Z,98893.97
2018-01-05T13:38:13.002Z,98887.98
2018-01-05T13:40:40.030Z,98897.97
2018-01-05T13:43:06.919Z,98900.82
2018-01-05T13:45:33.792Z,98905.13
2018-01-05T13:48:00.933Z,98906.98
2018-01-05T13:50:27.859Z,98904.64
2018-01-05T13:52:54.869Z,98905.24
2018-01-05T13:55:21.712Z,98912.98
2018-01-05T13:57:48.564Z,98910.22
2018-01-05T14:00:15.502Z,98912.85
2018-01-05T14:02:42.340Z,98904.95
2018-01-05T14:05:09.909Z,98904.22
2018-01-05T14:07:36.724Z,98913.28
2018-01-05T14:10:04.451Z,98908.39
2018-01-05T14:12:31.276Z,98915.06
2018-01-05T14:14:58.837Z,98909.02
2018-01-05T14:17:25.698Z,98911.83
2018-01-05T14:19:52.529Z,98914.61
2018-01-05T14:22:19.425Z,98922.82
2018-01-05T14:24:46.974Z,98926.17
2018-01-05T14:27:13.931Z,98921.97
2018-01-05T14:29:40.741Z,98911.04
2018-01-05T14:32:08.322Z,98924.44
2018-01-05T14:34:35.268Z,98929.41
2018-01-05T14:37:02.197Z,98924.55
2018-01-05T14:39:29.063Z,98931.45
2018-01-05T14:41:55.909Z,98935.19
2018-01-05T14:44:22.750Z,98933.23
2018-01-05T14:46:49.576Z,98920.17
2018-01-05T14:49:16.433Z,98926.84
2018-01-05T14:51:43.259Z,98931.06
2018-01-05T14:54:10.065Z,98941.27
2018-01-05T14:56:37.625Z,98936.16
2018-01-05T14:59:04.430Z,98941.89
2018-01-05T15:01:32.176Z,98945.80
2018-01-05T15:03:59.365Z,98953.20
2018-01-05T15:06:26.816Z,98941.96
2018-01-05T15:08:53.677Z,98939.54
2018-01-05T15:11:20.591Z,98933.67
2018-01-05T15:13:47.464Z,98925.89
2018-01-05T15:16:14.311Z,98923.80
2018-01-05T15:18:41.693Z,98935.28
2018-01-05T15:21:08.546Z,98946.42
2018-01-05T15:23:35.487Z,98941.55
2018-01-05T15:26:03.128Z,98939.05
2018-01-05T15:28:30.428Z,98942.67
2018-01-05T15:30:59.467Z,98949.61
2018-01-05T15:33:26.794Z,98948.72
2018-01-05T15:35:53.687Z,98948.39
2018-01-05T15:38:22.853Z,98950.19
2018-01-05T15:40:49.710Z,98955.27
2018-01-05T15:43:16.541Z,98957.84
2018-01-05T15:45:43.368Z,98957.11
2018-01-05T15:48:10.469Z,98942.55
2018-01-05T15:50:37.343Z,98934.39
2018-01-05T15:53:04.137Z,98939.66
2018-01-05T15:55:31.035Z,98953.03
2018-01-05T15:57:58.562Z,98955.60
2018-01-05T16:00:25.357Z,98957.20
2018-01-05T16:02:52.193Z,98942.25
2018-01-05T16:05:19.006Z,98938.03
2018-01-05T16:07:45.817Z,98941.81
2018-01-05T16:10:12.700Z,98945.12
2018-01-05T16:12:39.490Z,98944.95
2018-01-05T16:15:06.612Z,98941.16
2018-01-05T16:17:34.056Z,98942.33
2018-01-05T16:20:00.960Z,98946.63
2018-01-05T16:22:27.816Z,98951.74
2018-01-05T16:24:54.713Z,98948.30
2018-01-05T16:27:21.621Z,98956.20
2018-01-05T16:29:48.505Z,98958.67
2018-01-05T16:32:15.509Z,98948.00
2018-01-05T16:34:42.329Z,98949.93
2018-01-05T16:37:09.992Z,98958.17
2018-01-05T16:39:36.909Z,98945.82
2018-01-05T16:42:03.713Z,98944.36
2018-01-05T16:44:30.626Z,98950.79
2018-01-05T16:46:57.440Z,98957.22
2018-01-05T16:49:24.225Z,98952.34
2018-01-05T16:51:51.110Z,98954.83
2018-01-05T16:54:17.924Z,98956.22
2018-01-05T16:56:44.699Z,98960.12
2018-01-05T16:59:11.490Z,98958.15
2018-01-05T17:01:38.300Z,98961.05
2018-01-05T17:04:05.102Z,98955.80
2018-01-05T17:06:31.960Z,98955.41
2018-01-05T17:09:00.366Z,98954.63
2018-01-05T17:11:27.928Z,98952.50
2018-01-05T17:13:57.615Z,98949.83
2018-01-05T17:16:24.466Z,98957.95
2018-01-05T17:18:51.853Z,98971.00
2018-01-05T17:21:19.278Z,98973.94
2018-01-05T17:23:47.048Z,98967.93
2018-01-05T17:26:14.273Z,98962.24
2018-01-05T17:28:42.626Z,98956.16
2018-01-05T17:31:10.321Z,98954.89
2018-01-05T17:33:37.663Z,98943.00
2018-01-05T17:36:04.738Z,98943.49
2018-01-05T17:38:32.080Z,98943.52
2018-01-05T17:41:00.327Z,98950.78
2018-01-05T17:43:27.180Z,98955.92
2018-01-05T17:45:54.197Z,98951.51
2018-01-05T17:48:21.256Z,98962.55
2018-01-05T17:50:48.707Z,98962.81
2018-01-05T17:53:15.579Z,98965.41
2018-01-05T17:55:42.610Z,98962.08
2018-01-05T17:58:09.520Z,98958.70
2018-01-05T18:00:36.492Z,98961.73
2018-01-05T18:03:04.707Z,98952.33
2018-01-05T18:05:32.745Z,98962.34
2018-01-05T18:08:00.212Z,98953.17
2018-01-05T18:10:27.296Z,98951.27
2018-01-05T18:12:54.572Z,98963.81
2018-01-05T18:15:22.202Z,98966.33
2018-01-05T18:17:49.041Z,98966.33
2018-01-05T18:20:15.910Z,98976.44
2018-01-05T18:22:44.065Z,98977.09
2018-01-05T18:25:11.023Z,98972.98
2018-01-05T18:27:38.248Z,98972.21
2018-01-05T18:30:05.850Z,98972.95
2018-01-05T18:32:32.852Z,98971.95
2018-01-05T18:34:59.972Z,98976.92
2018-01-05T18:37:27.631Z,98971.78
2018-01-05T18:39:54.752Z,98975.05
2018-01-05T18:42:22.371Z,98979.14
2018-01-05T18:44:49.561Z,98984.25
2018-01-05T18:47:16.560Z,98988.44
2018-01-05T18:49:43.485Z,98999.58
2018-01-05T18:52:10.588Z,98995.98
2018-01-05T18:54:37.461Z,98997.88
2018-01-05T18:57:04.472Z,99002.55
2018-01-05T18:59:31.536Z,98999.27
2018-01-05T19:01:58.384Z,99000.27
2018-01-05T19:04:25.367Z,98999.69
2018-01-05T19:06:52.233Z,99012.89
2018-01-05T19:09:19.254Z,99013.72
2018-01-05T19:11:46.168Z,99017.84
2018-01-05T19:14:13.056Z,99022.38
2018-01-05T19:16:39.926Z,99022.58
2018-01-05T19:19:07.227Z,99023.34
2018-01-05T19:21:35.037Z,99033.11
2018-01-05T19:24:02.882Z,99039.53
2018-01-05T19:26:30.692Z,99034.53
2018-01-05T19:28:58.253Z,99043.44
2018-01-05T19:31:25.655Z,99051.30
2018-01-05T19:33:53.631Z,99045.25
2018-01-05T19:36:21.193Z,99049.36
2018-01-05T19:38:48.102Z,99051.61
2018-01-05T19:41:14.995Z,99058.66
2018-01-05T19:43:41.840Z,99060.52
2018-01-05T19:46:08.726Z,99065.02
2018-01-05T19:48:36.415Z,99068.03
2018-01-05T19:51:05.296Z,99073.46
2018-01-05T19:53:33.296Z,99070.24
2018-01-05T19:56:00.409Z,99076.13
2018-01-05T19:58:28.184Z,99075.12
2018-01-05T20:00:56.346Z,99080.23
2018-01-05T20:03:23.834Z,99080.39
2018-01-05T20:05:50.648Z,99080.23
2018-01-05T20:08:17.758Z,99086.59
2018-01-05T20:10:45.268Z,99089.81
2018-01-05T20:13:14.149Z,99098.38
2018-01-05T20:15:42.480Z,99106.35
2018-01-05T20:18:10.044Z,99103.80
2018-01-05T20:20:37.916Z,99114.64
2018-01-05T20:23:05.007Z,99123.63
2018-01-05T20:25:33.432Z,99126.76
2018-01-05T20:28:02.045Z,99129.04
2018-01-05T20:30:31.096Z,99135.23
2018-01-05T20:32:59.275Z,99130.58
2018-01-05T20:35:27.957Z,99136.61
2018-01-05T20:37:56.812Z,99151.52
2018-01-05T20:40:25.564Z,99157.13
2018-01-05T20:42:54.375Z,99161.65
2018-01-05T20:45:23.273Z,99164.97
2018-01-05T20:47:52.158Z,99168.75
2018-01-05T20:50:20.982Z,99173.91
2018-01-05T20:52:49.762Z,99182.41
2018-01-05T20:55:17.997Z,99192.21
2018-01-05T20:57:47.698Z,99189.06
2018-01-05T21:00:16.423Z,99177.91
2018-01-05T21:02:45.250Z,99181.19
2018-01-05T21:05:13.909Z,99201.61
2018-01-05T21:07:42.789Z,99201.82
2018-01-05T21:10:10.625Z,99207.08
2018-01-05T21:12:39.356Z,99206.73
2018-01-05T21:15:08.245Z,99208.70
2018-01-05T21:17:36.624Z,99207.59
2018-01-05T21:20:04.036Z,99207.11
2018-01-05T21:22:32.059Z,99205.54
2018-01-05T21:25:00.769Z,99206.22
2018-01-05T21:27:29.355Z,99217.48
2018-01-05T21:29:59.126Z,99216.45
2018-01-05T21:32:28.070Z,99223.92
2018-01-05T21:34:57.062Z,99231.17
2018-01-05T21:37:26.037Z,99237.42
2018-01-05T21:39:55.128Z,99242.92
2018-01-05T21:42:24.029Z,99244.28
2018-01-05T21:44:52.882Z,99243.50
2018-01-05T21:47:21.809Z,99243.95
2018-01-05T21:49:50.693Z,99249.92
2018-01-05T21:52:19.250Z,99260.41
2018-01-05T21:54:48.057Z,99269.97
2018-01-05T21:57:16.631Z,99286.13
2018-01-05T21:59:45.223Z,99285.73
2018-01-05T22:02:13.317Z,99296.33
2018-01-05T22:04:43.071Z,99296.28
2018-01-05T22:07:11.052Z,99301.67
2018-01-05T22:09:39.881Z,99304.22
2018-01-05T22:12:08.429Z,99307.33
2018-01-05T22:14:37.033Z,99306.35
2018-01-05T22:17:05.701Z,99307.97
2018-01-05T22:19:34.205Z,99309.45
2018-01-05T22:22:02.847Z,99307.56
2018-01-05T22:24:32.358Z,99302.63
2018-01-05T22:27:04.249Z,99300.55
2018-01-05T22:29:32.962Z,99299.60
2018-01-05T22:32:01.861Z,99301.53
2018-01-05T22:34:32.040Z,99310.64
2018-01-05T22:37:00.440Z,99310.88
2018-01-05T22:39:30.102Z,99318.09
2018-01-05T22:42:00.390Z,99320.03
2018-01-05T22:44:28.608Z,99325.33
2018-01-05T22:46:56.835Z,99324.48
2018-01-05T22:49:25.879Z,99335.60
2018-01-05T22:51:53.153Z,99330.98
2018-01-05T22:54:21.608Z,99338.89
2018-01-05T22:56:49.123Z,99343.94
2018-01-05T22:59:16.212Z,99358.23
2018-01-05T23:01:43.186Z,99357.64
2018-01-05T23:04:10.163Z,99361.78
2018-01-05T23:06:37.078Z,99370.25
2018-01-05T23:09:04.259Z,99372.12
2018-01-05T23:11:31.491Z,99366.18
2018-01-05T23:13:59.152Z,99376.13
2018-01-05T23:16:27.080Z,99387.32
2018-01-05T23:18:57.972Z,99383.09
2018-01-05T23:21:28.322Z,99387.92
2018-01-05T23:23:56.881Z,99395.30
2018-01-05T23:26:28.334Z,99393.50
2018-01-05T23:28:57.070Z,99389.42
2018-01-05T23:31:24.975Z,99401.17
2018-01-05T23:33:53.174Z,99406.48
2018-01-05T23:36:20.647Z,99405.53
2018-01-05T23:38:48.591Z,99400.41
2018-01-05T23:41:15.743Z,99403.35
2018-01-05T23:43:43.657Z,99404.74
2018-01-05T23:46:10.881Z,99404.64
2018-01-05T23:48:38.085Z,99399.72
2018-01-05T23:51:05.456Z,99397.94
2018-01-05T23:53:33.752Z,99400.08
2018-01-05T23:56:02.422Z,99405.09
2018-01-05T23:58:29.859Z,99411.64
